Pagrindinis puslapis
METAR-TAF:

METAR-TAF

Oro uostai :

Gerbangkertosusila, Indonezija

platuma: 07-22-47S, ilguma: 112-47-13E, Aukštis: 3 m

METAR: trūkstamas

Laikas: 03:27 (20:27 UTC)

Prognozė

Ataskaita buvo paskelbta 3 valandos ir 27 minutes, ne 17:00 UTC
Prognozė galioja nuo 20 metu 18 UTC su 21 metu 18 UTC
Vėjas 5 kt iš Vakarų/Pietvakarių
Matomumas: 5000 m
Mažai debesys ne aukštis 2000 ft
migla
Tapsmas
nuo 21 metu 00 UTC su 21 metu 02 UTC
Vėjas 10 kt iš Rytų/Pietryčių
Matomumas 10 km arba daugiau

TAF: WARR 201700Z 2018/2118 25005KT 5000 HZ FEW020 BECMG 2100/2102 11010KT 9999 NSW

Orai ataskaitas ir orų prognozės (METAR, TAF).

turimą stotys yra geltonos ir raudonos taškus žemėlapyje.

Perkelti pele per norėdami pamatyti stoties vardą.

Tada spustelėkite, norėdami matyti oro stebėjimo ir prognozės.

Norėdami pakeisti žemėlapį: spustelėkite ant žalios mygtukų su juodo kryžiaus žemyn,; žalią mygtuką su brūkšneliu, jei norite nutolinti; arba žalių rodyklių gretimoms žemėlapius.


METAR-TAF: